createdAt,value
2018-12-14T00:00:52.756Z,38.9
2018-12-14T00:01:54.672Z,39
2018-12-14T00:02:56.292Z,38.7
2018-12-14T00:03:57.612Z,38.7
2018-12-14T00:04:58.950Z,38.8
2018-12-14T00:06:00.273Z,38.9
2018-12-14T00:07:01.877Z,38.9
2018-12-14T00:08:03.212Z,38.9
2018-12-14T00:09:04.890Z,38.8
2018-12-14T00:10:06.477Z,38.7
2018-12-14T00:11:07.797Z,38.9
2018-12-14T00:12:09.440Z,38.9
2018-12-14T00:13:11.060Z,38.7
2018-12-14T00:14:12.951Z,39
2018-12-14T00:15:14.018Z,39
2018-12-14T00:16:15.341Z,38.7
2018-12-14T00:17:16.966Z,38.5
2018-12-14T00:18:18.861Z,38.7
2018-12-14T00:19:20.478Z,38.7
2018-12-14T00:20:21.795Z,38.8
2018-12-14T00:21:23.412Z,38.6
2018-12-14T00:22:25.037Z,38.5
2018-12-14T00:23:26.657Z,38.5
2018-12-14T00:24:28.651Z,38.5
2018-12-14T00:25:30.544Z,38.6
2018-12-14T00:26:31.310Z,38.6
2018-12-14T00:27:33.202Z,38.5
2018-12-14T00:28:34.824Z,39
2018-12-14T00:29:36.722Z,38.7
2018-12-14T00:30:39.472Z,38.6
2018-12-14T00:31:40.817Z,38.7
2018-12-14T00:32:42.435Z,38.9
2018-12-14T00:33:43.765Z,38.7
2018-12-14T00:34:45.359Z,39
2018-12-14T00:35:46.979Z,38.8
2018-12-14T00:36:48.597Z,38.7
2018-12-14T00:37:50.488Z,38.7
2018-12-14T00:38:52.380Z,38.9
2018-12-14T00:39:54.275Z,38.8
2018-12-14T00:40:56.168Z,38.7
2018-12-14T00:41:58.071Z,38.7
2018-12-14T00:42:59.407Z,38.8
2018-12-14T00:44:01.350Z,38.7
2018-12-14T00:45:02.419Z,38.7
2018-12-14T00:46:04.313Z,38.8
2018-12-14T00:47:07.409Z,38.9
2018-12-14T00:48:08.517Z,39
2018-12-14T00:49:09.837Z,39
2018-12-14T00:50:11.733Z,38.6
2018-12-14T00:51:13.334Z,38.5
2018-12-14T00:52:14.677Z,38.5
2018-12-14T00:53:16.001Z,38.5
2018-12-14T00:54:17.327Z,38.6
2018-12-14T00:55:18.944Z,38.6
2018-12-14T00:56:20.538Z,38.5
2018-12-14T00:57:21.859Z,38.6
2018-12-14T00:58:23.755Z,39
2018-12-14T00:59:25.657Z,38.9
2018-12-14T01:00:27.545Z,38.9
2018-12-14T01:01:28.865Z,38.6
2018-12-14T01:02:30.481Z,39
2018-12-14T01:03:31.527Z,39
2018-12-14T01:04:32.593Z,38.8
2018-12-14T01:05:34.249Z,38.7
2018-12-14T01:06:35.868Z,38.7
2018-12-14T01:07:36.937Z,38.7
2018-12-14T01:08:38.555Z,38.6
2018-12-14T01:09:39.877Z,38.7
2018-12-14T01:10:41.496Z,38.9
2018-12-14T01:11:42.840Z,38.9
2018-12-14T01:12:44.433Z,38.5
2018-12-14T01:13:45.780Z,38.5
2018-12-14T01:14:46.848Z,39
2018-12-14T01:15:48.459Z,39
2018-12-14T01:16:50.351Z,38.9
2018-12-14T01:17:51.671Z,38.9
2018-12-14T01:18:53.590Z,38.5
2018-12-14T01:19:55.197Z,38.6
2018-12-14T01:20:57.092Z,38.5
2018-12-14T01:21:58.443Z,38.9
2018-12-14T01:23:00.068Z,38.5
2018-12-14T01:24:01.117Z,38.8
2018-12-14T01:25:03.011Z,38.3
2018-12-14T01:26:04.907Z,38.2
2018-12-14T01:27:06.530Z,38.2
2018-12-14T01:28:07.881Z,38.1
2018-12-14T01:29:09.820Z,38.2
2018-12-14T01:30:11.161Z,38.2
2018-12-14T01:31:12.501Z,38.1
2018-12-14T01:32:14.396Z,38.3
2018-12-14T01:33:16.012Z,38.3
2018-12-14T01:34:17.359Z,38.3
2018-12-14T01:35:18.702Z,38.4
2018-12-14T01:36:20.303Z,38.4
2018-12-14T01:37:21.626Z,38.4
2018-12-14T01:38:22.946Z,38.3
2018-12-14T01:39:24.888Z,38.5
2018-12-14T01:40:26.236Z,38.3
2018-12-14T01:41:28.139Z,38.4
2018-12-14T01:42:30.037Z,38.2
2018-12-14T01:43:31.642Z,38.4
2018-12-14T01:44:33.258Z,38.5
2018-12-14T01:45:35.152Z,38.2
2018-12-14T01:46:36.771Z,38.1
2018-12-14T01:47:37.536Z,38.5
2018-12-14T01:48:39.432Z,38.3
2018-12-14T01:49:41.331Z,38.4
2018-12-14T01:50:43.225Z,38.3
2018-12-14T01:51:44.545Z,38.5
2018-12-14T01:52:46.442Z,38.4
2018-12-14T01:53:48.335Z,38.5
2018-12-14T01:54:50.235Z,38.3
2018-12-14T01:55:51.856Z,38.4
2018-12-14T01:56:53.181Z,38.5
2018-12-14T01:57:54.227Z,38.5
2018-12-14T01:58:55.848Z,38.4
2018-12-14T01:59:57.742Z,38.4
2018-12-14T02:00:59.092Z,38.2
2018-12-14T02:02:00.718Z,38.2
2018-12-14T02:03:02.332Z,38
2018-12-14T02:04:03.654Z,38.2
2018-12-14T02:05:05.265Z,38
2018-12-14T02:06:06.582Z,38.2
2018-12-14T02:07:08.200Z,38.1
2018-12-14T02:08:09.800Z,38.5
2018-12-14T02:09:11.443Z,38.3
2018-12-14T02:10:12.784Z,38.4
2018-12-14T02:11:13.839Z,38.3
2018-12-14T02:12:15.458Z,38.4
2018-12-14T02:13:17.080Z,38.3
2018-12-14T02:14:18.676Z,38.2
2018-12-14T02:15:20.295Z,38.1
2018-12-14T02:16:21.915Z,38.3
2018-12-14T02:17:23.323Z,38.3
2018-12-14T02:18:25.210Z,38.4
2018-12-14T02:19:27.109Z,38.2
2018-12-14T02:20:29.002Z,38.3
2018-12-14T02:21:30.955Z,38.2
2018-12-14T02:22:32.590Z,38.1
2018-12-14T02:23:33.916Z,38.1
2018-12-14T02:24:35.514Z,38.1
2018-12-14T02:25:37.146Z,38
2018-12-14T02:26:38.759Z,37.8
2018-12-14T02:27:40.375Z,37.8
2018-12-14T02:28:42.268Z,38
2018-12-14T02:29:43.867Z,37.8
2018-12-14T02:30:45.762Z,38
2018-12-14T02:31:47.385Z,37.7
2018-12-14T02:32:48.727Z,37.8
2018-12-14T02:33:49.781Z,38
2018-12-14T02:34:51.398Z,37.9
2018-12-14T02:35:52.728Z,37.9
2018-12-14T02:36:54.631Z,37.8
2018-12-14T02:37:56.519Z,37.9
2018-12-14T02:38:57.864Z,38
2018-12-14T02:39:59.759Z,37.8
2018-12-14T02:41:01.379Z,38
2018-12-14T02:42:02.997Z,38
2018-12-14T02:43:04.945Z,38
2018-12-14T02:44:06.577Z,37.8
2018-12-14T02:45:07.646Z,38
2018-12-14T02:46:08.993Z,38
2018-12-14T02:47:10.614Z,38
2018-12-14T02:48:11.942Z,38
2018-12-14T02:49:13.560Z,38.1
2018-12-14T02:50:14.610Z,38.1
2018-12-14T02:51:16.506Z,38
2018-12-14T02:52:18.404Z,38
2018-12-14T02:53:20.300Z,37.9
2018-12-14T02:54:21.942Z,38
2018-12-14T02:55:23.265Z,38
2018-12-14T02:56:24.605Z,37.9
2018-12-14T02:57:26.201Z,38
2018-12-14T02:58:27.542Z,37.8
2018-12-14T02:59:29.165Z,38
2018-12-14T03:00:30.786Z,37.7
2018-12-14T03:01:32.683Z,37.7
2018-12-14T03:02:34.578Z,37.7
2018-12-14T03:03:35.909Z,37.6
2018-12-14T03:04:37.803Z,37.7
2018-12-14T03:05:39.426Z,37.7
2018-12-14T03:06:40.752Z,37.8
2018-12-14T03:07:42.659Z,37.8
2018-12-14T03:08:44.326Z,37.7
2018-12-14T03:09:46.221Z,37.7
2018-12-14T03:10:47.836Z,37.8
2018-12-14T03:11:49.474Z,37.7
2018-12-14T03:12:51.372Z,37.7
2018-12-14T03:13:53.272Z,37.7
2018-12-14T03:14:54.627Z,37.8
2018-12-14T03:15:56.230Z,37.8
2018-12-14T03:16:57.563Z,37.7
2018-12-14T03:17:59.182Z,37.8
2018-12-14T03:19:01.073Z,37.7
2018-12-14T03:20:02.693Z,37.9
2018-12-14T03:21:04.309Z,38
2018-12-14T03:22:05.933Z,37.7
2018-12-14T03:23:07.835Z,38
2018-12-14T03:24:09.179Z,37.4
2018-12-14T03:25:10.781Z,37.8
2018-12-14T03:26:12.394Z,37.8
2018-12-14T03:27:14.288Z,37.7
2018-12-14T03:28:15.637Z,37.7
2018-12-14T03:29:17.530Z,37.7
2018-12-14T03:30:19.430Z,37.7
2018-12-14T03:31:20.770Z,37.9
2018-12-14T03:32:22.670Z,38
2018-12-14T03:33:24.565Z,37.8
2018-12-14T03:34:25.357Z,37.9
2018-12-14T03:35:26.996Z,37.9
2018-12-14T03:36:28.343Z,38
2018-12-14T03:37:29.962Z,38
2018-12-14T03:38:31.894Z,37.7
2018-12-14T03:39:33.254Z,38
2018-12-14T03:40:34.876Z,37.8
2018-12-14T03:41:36.480Z,37.9
2018-12-14T03:42:38.385Z,37.8
2018-12-14T03:43:40.004Z,38
2018-12-14T03:44:41.898Z,37.8
2018-12-14T03:45:43.566Z,37.9
2018-12-14T03:46:45.465Z,37.7
2018-12-14T03:47:47.355Z,37.9
2018-12-14T03:48:49.255Z,38
2018-12-14T03:49:50.881Z,38
2018-12-14T03:50:52.519Z,37.8
2018-12-14T03:51:53.844Z,38
2018-12-14T03:52:55.740Z,38
2018-12-14T03:53:57.360Z,38
2018-12-14T03:54:58.976Z,37.9
2018-12-14T03:56:00.873Z,37.9
2018-12-14T03:57:02.197Z,38
2018-12-14T03:58:03.817Z,38
2018-12-14T03:59:05.464Z,38
2018-12-14T04:00:07.048Z,38.1
2018-12-14T04:01:08.945Z,37.9
2018-12-14T04:02:09.993Z,38.1
2018-12-14T04:03:11.610Z,37.8
2018-12-14T04:04:12.665Z,37.8
2018-12-14T04:05:14.558Z,37.8
2018-12-14T04:06:15.906Z,37.8
2018-12-14T04:07:17.801Z,37.6
2018-12-14T04:08:19.408Z,37.8
2018-12-14T04:09:21.303Z,37.7
2018-12-14T04:10:22.650Z,37.6
2018-12-14T04:11:24.274Z,37.7
2018-12-14T04:12:26.189Z,37.4
2018-12-14T04:13:27.512Z,37.9
2018-12-14T04:14:29.129Z,37.7
2018-12-14T04:15:30.744Z,37.5
2018-12-14T04:16:32.091Z,37.6
2018-12-14T04:17:33.436Z,37.7
2018-12-14T04:18:35.034Z,37.5
2018-12-14T04:19:36.656Z,37.7
2018-12-14T04:20:38.549Z,37.7
2018-12-14T04:21:40.166Z,37.4
2018-12-14T04:22:41.790Z,37.6
2018-12-14T04:23:43.687Z,37.6
2018-12-14T04:24:44.739Z,37.4
2018-12-14T04:25:46.633Z,37.7
2018-12-14T04:26:48.256Z,37.7
2018-12-14T04:27:49.583Z,37.6
2018-12-14T04:28:51.203Z,37.5
2018-12-14T04:29:52.530Z,37.7
2018-12-14T04:30:54.424Z,37.3
2018-12-14T04:31:56.323Z,38
2018-12-14T04:32:58.217Z,37.8
2018-12-14T04:33:59.265Z,37.8
2018-12-14T04:35:01.167Z,37.7
2018-12-14T04:36:03.057Z,38
2018-12-14T04:37:04.736Z,37.8
2018-12-14T04:38:05.786Z,37.7
2018-12-14T04:39:07.404Z,37.9
2018-12-14T04:40:08.182Z,37.7
2018-12-14T04:41:09.790Z,38
2018-12-14T04:42:11.416Z,37.7
2018-12-14T04:43:12.738Z,37.7
2018-12-14T04:44:14.355Z,37.7
2018-12-14T04:45:15.703Z,37.8
2018-12-14T04:46:17.324Z,37.8
2018-12-14T04:47:18.943Z,37.7
2018-12-14T04:48:20.842Z,37.8
2018-12-14T04:49:22.799Z,37.7
2018-12-14T04:50:24.143Z,37.9
2018-12-14T04:51:25.760Z,37.8
2018-12-14T04:52:27.380Z,37.9
2018-12-14T04:53:28.724Z,37.8
2018-12-14T04:54:30.357Z,37.7
2018-12-14T04:55:31.961Z,37.6
2018-12-14T04:56:33.306Z,37.5
2018-12-14T04:57:34.656Z,37.4
2018-12-14T04:58:36.278Z,37.4
2018-12-14T04:59:37.323Z,37.3
2018-12-14T05:00:39.225Z,37.1
2018-12-14T05:01:40.843Z,37.1
2018-12-14T05:02:42.740Z,37.3
2018-12-14T05:03:44.358Z,37.2
2018-12-14T05:04:46.295Z,37.3
2018-12-14T05:05:47.915Z,37.3
2018-12-14T05:06:49.535Z,36.8
2018-12-14T05:07:51.428Z,37.1
2018-12-14T05:08:53.031Z,36.9
2018-12-14T05:09:54.648Z,37
2018-12-14T05:10:56.267Z,37.1
2018-12-14T05:11:57.888Z,37.1
2018-12-14T05:12:59.210Z,37.2
2018-12-14T05:14:01.106Z,36.7
2018-12-14T05:15:03.000Z,37
2018-12-14T05:16:04.341Z,37.1
2018-12-14T05:17:05.964Z,37.3
2018-12-14T05:18:07.560Z,37.1
2018-12-14T05:19:09.159Z,37.3
2018-12-14T05:20:10.505Z,37
2018-12-14T05:21:12.399Z,37.1
2018-12-14T05:22:14.017Z,37.1
2018-12-14T05:23:15.069Z,37
2018-12-14T05:24:16.693Z,37.3
2018-12-14T05:25:18.310Z,37.1
2018-12-14T05:26:20.202Z,36.9
2018-12-14T05:27:22.094Z,37.1
2018-12-14T05:28:23.714Z,37.1
2018-12-14T05:29:25.334Z,37.1
2018-12-14T05:30:26.957Z,37.2
2018-12-14T05:31:28.555Z,37.1
2018-12-14T05:32:29.663Z,37.1
2018-12-14T05:33:31.281Z,36.9
2018-12-14T05:34:32.928Z,36.9
2018-12-14T05:35:34.548Z,36.9
2018-12-14T05:36:36.168Z,37
2018-12-14T05:37:37.788Z,37.1
2018-12-14T05:38:39.408Z,37.1
2018-12-14T05:39:41.303Z,36.9
2018-12-14T05:40:42.626Z,37.2
2018-12-14T05:41:44.523Z,37.2
2018-12-14T05:42:46.146Z,37.3
2018-12-14T05:43:47.762Z,37
2018-12-14T05:44:49.106Z,37.2
2018-12-14T05:45:50.448Z,37.2
2018-12-14T05:46:52.345Z,37.1
2018-12-14T05:47:53.413Z,37.2
2018-12-14T05:48:54.752Z,37.1
2018-12-14T05:49:56.073Z,37.5
2018-12-14T05:50:57.693Z,37.8
2018-12-14T05:51:59.588Z,37.5
2018-12-14T05:53:01.484Z,37.3
2018-12-14T05:54:03.105Z,37.5
2018-12-14T05:55:04.727Z,37.4
2018-12-14T05:56:06.345Z,37.4
2018-12-14T05:57:07.968Z,37.4
2018-12-14T05:58:09.323Z,37.5
2018-12-14T05:59:11.218Z,37.4
2018-12-14T06:00:13.113Z,37.9
2018-12-14T06:01:14.436Z,37.7
2018-12-14T06:02:15.767Z,37.6
2018-12-14T06:03:17.384Z,37.6
2018-12-14T06:04:19.278Z,37.6
2018-12-14T06:05:20.633Z,37.6
2018-12-14T06:06:22.253Z,37.7
2018-12-14T06:07:23.599Z,37.4
2018-12-14T06:08:25.218Z,37.3
2018-12-14T06:09:27.112Z,37.5
2018-12-14T06:10:28.437Z,37.6
2018-12-14T06:11:30.051Z,37.5
2018-12-14T06:12:31.948Z,37.7
2018-12-14T06:13:33.546Z,37
2018-12-14T06:14:35.167Z,37.4
2018-12-14T06:15:36.210Z,37.7
2018-12-14T06:16:37.536Z,37.6
2018-12-14T06:17:39.159Z,37.6
2018-12-14T06:18:41.057Z,37.7
2018-12-14T06:19:42.677Z,37.6
2018-12-14T06:20:44.572Z,37.6
2018-12-14T06:21:45.892Z,37.8
2018-12-14T06:22:47.786Z,37.5
2018-12-14T06:23:49.678Z,37.4
2018-12-14T06:24:51.044Z,37.4
2018-12-14T06:25:52.386Z,37.4
2018-12-14T06:26:53.730Z,37.5
2018-12-14T06:27:55.357Z,37.4
2018-12-14T06:28:57.250Z,37.5
2018-12-14T06:29:58.870Z,37.6
2018-12-14T06:31:00.196Z,37.5
2018-12-14T06:32:02.090Z,37.9
2018-12-14T06:33:03.987Z,37.9
2018-12-14T06:34:05.332Z,37.7
2018-12-14T06:35:06.378Z,37.8
2018-12-14T06:36:08.000Z,37.7
2018-12-14T06:37:09.621Z,38.1
2018-12-14T06:38:11.220Z,37.9
2018-12-14T06:39:13.115Z,37.8
2018-12-14T06:40:15.011Z,37.9
2018-12-14T06:41:16.612Z,37.7
2018-12-14T06:42:18.508Z,38
2018-12-14T06:43:20.131Z,37.9
2018-12-14T06:44:21.481Z,37.7
2018-12-14T06:45:22.809Z,38.1
2018-12-14T06:46:24.131Z,37.8
2018-12-14T06:47:25.475Z,38.1
2018-12-14T06:48:26.817Z,37.8
2018-12-14T06:49:27.861Z,37.8
2018-12-14T06:50:29.180Z,38
2018-12-14T06:51:30.560Z,37.8
2018-12-14T06:52:32.176Z,38
2018-12-14T06:53:34.073Z,38.1
2018-12-14T06:54:35.457Z,38
2018-12-14T06:55:36.851Z,37.9
2018-12-14T06:56:38.746Z,38.1
2018-12-14T06:57:40.366Z,38.1
2018-12-14T06:58:41.981Z,37.8
2018-12-14T06:59:43.581Z,37.8
2018-12-14T07:00:45.534Z,37.9
2018-12-14T07:01:47.429Z,37.8
2018-12-14T07:02:49.047Z,37.6
2018-12-14T07:03:50.671Z,37.4
2018-12-14T07:04:52.562Z,37.7
2018-12-14T07:05:53.666Z,38
2018-12-14T07:06:54.982Z,38.1
2018-12-14T07:07:56.603Z,38
2018-12-14T07:08:58.503Z,38.2
2018-12-14T07:10:00.400Z,38.1
2018-12-14T07:11:01.747Z,38.2
2018-12-14T07:12:03.368Z,38.1
2018-12-14T07:13:05.267Z,38
2018-12-14T07:14:06.887Z,38.2
2018-12-14T07:15:08.786Z,38.2
2018-12-14T07:16:10.680Z,38.1
2018-12-14T07:17:12.576Z,38.4
2018-12-14T07:18:14.275Z,38
2018-12-14T07:19:15.718Z,38.1
2018-12-14T07:20:17.613Z,38.3
2018-12-14T07:21:19.238Z,38.2
2018-12-14T07:22:21.133Z,38.4
2018-12-14T07:23:22.465Z,38.5
2018-12-14T07:24:23.787Z,38.3
2018-12-14T07:25:25.107Z,38.5
2018-12-14T07:26:27.006Z,38.4
2018-12-14T07:27:28.625Z,38.4
2018-12-14T07:28:29.975Z,38.4
2018-12-14T07:29:31.868Z,38.3
2018-12-14T07:30:33.763Z,38.1
2018-12-14T07:31:35.385Z,38.4
2018-12-14T07:32:38.691Z,38.4
2018-12-14T07:33:40.291Z,38.4
2018-12-14T07:34:41.915Z,38.3
2018-12-14T07:35:43.550Z,38.4
2018-12-14T07:36:45.150Z,38.5
2018-12-14T07:37:46.775Z,38.4
2018-12-14T07:38:48.782Z,38.4
2018-12-14T07:39:50.405Z,38.4
2018-12-14T07:40:52.022Z,38.2
2018-12-14T07:41:53.672Z,38.3
2018-12-14T07:42:55.604Z,38.2
2018-12-14T07:43:56.952Z,38.3
2018-12-14T07:44:58.725Z,38.5
2018-12-14T07:46:00.788Z,38.4
2018-12-14T07:47:02.394Z,38.4
2018-12-14T07:48:03.843Z,38.3
2018-12-14T07:49:05.329Z,38.5
2018-12-14T07:50:06.758Z,38.3
2018-12-14T07:51:08.817Z,38.7
2018-12-14T07:52:10.579Z,38.7
2018-12-14T07:53:12.233Z,38.5
2018-12-14T07:54:14.017Z,38.3
2018-12-14T07:55:16.039Z,38.3
2018-12-14T07:56:17.946Z,38.3
2018-12-14T07:57:20.638Z,38.5
2018-12-14T07:58:21.986Z,38.6
2018-12-14T07:59:23.089Z,38.7
2018-12-14T08:00:24.747Z,38.6
2018-12-14T08:01:26.369Z,38.5
2018-12-14T08:02:27.427Z,38.7
2018-12-14T08:03:29.457Z,38.8
2018-12-14T08:04:31.185Z,38.7
2018-12-14T08:05:32.858Z,38.6
2018-12-14T08:06:34.378Z,38.6
2018-12-14T08:07:36.089Z,38.7
2018-12-14T08:08:37.991Z,38.5
2018-12-14T08:09:39.068Z,38.6
2018-12-14T08:10:40.413Z,38.6
2018-12-14T08:11:42.028Z,38.2
2018-12-14T08:12:43.929Z,38.5
2018-12-14T08:13:45.558Z,38.7
2018-12-14T08:14:47.184Z,38.5
2018-12-14T08:15:48.804Z,38.5
2018-12-14T08:16:50.425Z,38.7
2018-12-14T08:17:52.077Z,38.9
2018-12-14T08:18:53.691Z,39.1
2018-12-14T08:19:55.390Z,38.6
2018-12-14T08:20:57.003Z,38.8
2018-12-14T08:21:58.336Z,38.8
2018-12-14T08:22:59.437Z,38.5
2018-12-14T08:24:01.132Z,38.5
2018-12-14T08:25:02.471Z,38.5
2018-12-14T08:26:03.818Z,38.6
2018-12-14T08:27:04.917Z,38.3
2018-12-14T08:28:06.532Z,38.8
2018-12-14T08:29:07.858Z,38.7
2018-12-14T08:30:09.758Z,38.7
2018-12-14T08:31:11.385Z,38.9
2018-12-14T08:32:12.810Z,38.6
2018-12-14T08:33:14.416Z,38.6
2018-12-14T08:34:15.747Z,38.9
2018-12-14T08:35:17.653Z,38.7
2018-12-14T08:36:18.997Z,38.9
2018-12-14T08:37:20.073Z,38.8
2018-12-14T08:38:21.429Z,38.9
2018-12-14T08:39:22.778Z,38.6
2018-12-14T08:40:24.675Z,38.7
2018-12-14T08:41:26.569Z,38.5
2018-12-14T08:42:28.473Z,38.9
2018-12-14T08:43:30.483Z,38.8
2018-12-14T08:44:32.112Z,38.9
2018-12-14T08:45:33.734Z,39.5
2018-12-14T08:46:35.378Z,39
2018-12-14T08:47:36.455Z,39.3
2018-12-14T08:48:38.523Z,38.9
2018-12-14T08:49:40.292Z,38.6
2018-12-14T08:50:41.442Z,38.7
2018-12-14T08:51:43.050Z,38.9
2018-12-14T08:52:45.807Z,38.5
2018-12-14T08:53:47.442Z,38.6
2018-12-14T08:54:49.183Z,38.8
2018-12-14T08:55:50.890Z,38.6
2018-12-14T08:56:52.787Z,38.9
2018-12-14T08:57:53.841Z,39
2018-12-14T08:58:55.458Z,39.2
2018-12-14T08:59:56.652Z,39.4
2018-12-14T09:00:58.277Z,39.5
2018-12-14T09:01:59.907Z,39.7
2018-12-14T09:03:01.591Z,39.7
2018-12-14T09:04:03.304Z,39.7
2018-12-14T09:05:04.929Z,39.6
2018-12-14T09:06:06.287Z,39.6
2018-12-14T09:07:07.908Z,39.7
2018-12-14T09:08:09.801Z,39.4
2018-12-14T09:09:11.402Z,39.6
2018-12-14T09:10:12.734Z,39.5
2018-12-14T09:11:14.359Z,39.7
2018-12-14T09:12:15.686Z,39.8
2018-12-14T09:13:16.735Z,39.4
2018-12-14T09:14:18.082Z,39.6
2018-12-14T09:15:19.711Z,39.7
2018-12-14T09:16:21.605Z,39.7
2018-12-14T09:17:23.233Z,39.4
2018-12-14T09:18:24.559Z,39.5
2018-12-14T09:19:26.183Z,39.5
2018-12-14T09:20:27.539Z,39.5
2018-12-14T09:21:29.141Z,39.8
2018-12-14T09:22:30.472Z,40.6
2018-12-14T09:23:32.093Z,40.3
2018-12-14T09:24:33.717Z,39.9
2018-12-14T09:25:35.324Z,40
2018-12-14T09:26:36.947Z,40.1
2018-12-14T09:27:38.573Z,40.6
2018-12-14T09:28:39.947Z,39.8
2018-12-14T09:29:41.292Z,40.1
2018-12-14T09:30:43.514Z,40.3
2018-12-14T09:31:45.308Z,39.9
2018-12-14T09:32:46.983Z,39.7
2018-12-14T09:33:47.756Z,39.9
2018-12-14T09:34:49.379Z,39.8
2018-12-14T09:35:50.708Z,39.8
2018-12-14T09:36:52.602Z,40.2
2018-12-14T09:37:54.223Z,40.4
2018-12-14T09:38:55.857Z,40.3
2018-12-14T09:39:57.808Z,40.3
2018-12-14T09:40:59.428Z,40
2018-12-14T09:42:01.068Z,39.9
2018-12-14T09:43:02.760Z,39.9
2018-12-14T09:44:04.657Z,40.1
2018-12-14T09:45:06.006Z,40.3
2018-12-14T09:46:07.610Z,40
2018-12-14T09:47:08.961Z,40
2018-12-14T09:48:10.633Z,40
2018-12-14T09:49:12.257Z,39.9
2018-12-14T09:50:14.165Z,40.2
2018-12-14T09:51:15.796Z,40.3
2018-12-14T09:52:17.417Z,40.3
2018-12-14T09:53:18.462Z,40.1
2018-12-14T09:54:19.808Z,40.1
2018-12-14T09:55:21.706Z,40.1
2018-12-14T09:56:23.327Z,40.2
2018-12-14T09:57:25.233Z,40.2
2018-12-14T09:58:26.629Z,40.3
2018-12-14T09:59:27.976Z,40.5
2018-12-14T10:00:29.605Z,40.6
2018-12-14T10:01:31.006Z,40.6
2018-12-14T10:02:32.352Z,40.4
2018-12-14T10:03:33.515Z,40.3
2018-12-14T10:04:35.412Z,40.6
2018-12-14T10:05:37.038Z,40.4
2018-12-14T10:06:38.933Z,40.2
2018-12-14T10:07:47.447Z,40.1
2018-12-14T10:08:48.519Z,40.4
2018-12-14T10:09:50.416Z,40.3
2018-12-14T10:10:51.467Z,40.3
2018-12-14T10:11:55.939Z,40.4
2018-12-14T10:12:57.591Z,40.1
2018-12-14T10:14:01.514Z,39.9
2018-12-14T10:15:03.413Z,39.9
2018-12-14T10:16:04.739Z,39.9
2018-12-14T10:17:06.704Z,39.9
2018-12-14T10:18:08.028Z,40.3
2018-12-14T10:19:09.651Z,40.4
2018-12-14T10:20:11.274Z,40.4
2018-12-14T10:21:12.898Z,39.9
2018-12-14T10:22:14.529Z,39.8
2018-12-14T10:23:16.418Z,39.6
2018-12-14T10:24:17.768Z,40.4
2018-12-14T10:25:19.097Z,40.4
2018-12-14T10:26:20.425Z,40.3
2018-12-14T10:27:22.044Z,40
2018-12-14T10:28:23.667Z,40
2018-12-14T10:29:25.569Z,39.9
2018-12-14T10:30:27.187Z,40.1
2018-12-14T10:31:28.810Z,40
2018-12-14T10:32:30.708Z,39.8
2018-12-14T10:33:32.606Z,40.4
2018-12-14T10:34:34.506Z,40.4
2018-12-14T10:35:36.129Z,40.2
2018-12-14T10:36:37.731Z,40.3
2018-12-14T10:37:39.351Z,41
2018-12-14T10:38:41.002Z,40.8
2018-12-14T10:39:42.353Z,40.6
2018-12-14T10:40:43.973Z,40.5
2018-12-14T10:41:45.872Z,40.8
2018-12-14T10:42:47.562Z,40.6
2018-12-14T10:43:49.266Z,40.7
2018-12-14T10:44:50.922Z,40.8
2018-12-14T10:45:53.295Z,40.6
2018-12-14T10:46:54.917Z,40.8
2018-12-14T10:47:56.566Z,40.8
2018-12-14T10:48:57.991Z,41
2018-12-14T10:49:59.037Z,40.9
2018-12-14T10:51:00.655Z,40.8
2018-12-14T10:52:02.124Z,40.4
2018-12-14T10:53:04.632Z,40.5
2018-12-14T10:54:06.610Z,40.3
2018-12-14T10:55:08.236Z,40.6
2018-12-14T10:56:09.558Z,40.5
2018-12-14T10:57:16.419Z,40.6
2018-12-14T10:58:18.041Z,40.6
2018-12-14T10:59:19.366Z,40.3
2018-12-14T11:00:20.990Z,40.4
2018-12-14T11:01:22.613Z,40.8
2018-12-14T11:02:24.216Z,40.6
2018-12-14T11:03:26.109Z,40.7
2018-12-14T11:04:28.007Z,40.6
2018-12-14T11:05:29.352Z,40.7
2018-12-14T11:06:30.676Z,41
2018-12-14T11:07:32.572Z,40.7
2018-12-14T11:08:34.252Z,40.7
2018-12-14T11:09:35.875Z,41
2018-12-14T11:10:37.826Z,40.4
2018-12-14T11:11:39.450Z,40.4
2018-12-14T11:12:41.365Z,40.8
2018-12-14T11:13:43.027Z,40.8
2018-12-14T11:14:44.776Z,40.7
2018-12-14T11:15:46.791Z,40.9
2018-12-14T11:16:48.391Z,40.9
2018-12-14T11:17:50.288Z,41
2018-12-14T11:18:51.917Z,41
2018-12-14T11:19:53.821Z,41
2018-12-14T11:20:55.420Z,40.5
2018-12-14T11:21:57.321Z,40.4
2018-12-14T11:22:59.216Z,40.5
2018-12-14T11:24:00.543Z,40.5
2018-12-14T11:25:02.148Z,40.1
2018-12-14T11:26:03.775Z,39.9
2018-12-14T11:27:05.669Z,39.8
2018-12-14T11:28:07.570Z,40
2018-12-14T11:29:08.919Z,40
2018-12-14T11:30:10.809Z,40
2018-12-14T11:31:12.418Z,39.9
2018-12-14T11:32:14.034Z,40
2018-12-14T11:33:15.656Z,39.9
2018-12-14T11:34:17.134Z,39.9
2018-12-14T11:35:18.484Z,40.1
2018-12-14T11:36:20.377Z,40.5
2018-12-14T11:37:21.437Z,40.5
2018-12-14T11:38:23.328Z,40.8
2018-12-14T11:39:24.950Z,40.5
2018-12-14T11:40:26.568Z,40.5
2018-12-14T11:41:28.192Z,40.4
2018-12-14T11:42:29.810Z,40.6
2018-12-14T11:43:31.448Z,40.4
2018-12-14T11:44:33.373Z,40.3
2018-12-14T11:45:35.013Z,40.4
2018-12-14T11:46:36.387Z,40
2018-12-14T11:47:38.095Z,40.1
2018-12-14T11:48:39.495Z,40.1
2018-12-14T11:49:41.393Z,40.3
2018-12-14T11:50:43.290Z,40.2
2018-12-14T11:51:45.189Z,40.8
2018-12-14T11:52:46.538Z,40.8
2018-12-14T11:53:48.257Z,40.5
2018-12-14T11:54:49.913Z,39.9
2018-12-14T11:55:50.987Z,40.5
2018-12-14T11:56:52.035Z,40.4
2018-12-14T11:57:53.363Z,40.3
2018-12-14T11:58:54.690Z,40.1
2018-12-14T11:59:56.310Z,40
2018-12-14T12:00:57.934Z,39.9
2018-12-14T12:01:58.983Z,40.1
2018-12-14T12:03:00.879Z,40.2
2018-12-14T12:04:02.775Z,40
2018-12-14T12:05:04.380Z,40.1
2018-12-14T12:06:06.004Z,40.3
2018-12-14T12:07:07.074Z,40.2
2018-12-14T12:08:08.973Z,40.1
2018-12-14T12:09:10.869Z,40.2
2018-12-14T12:10:12.764Z,40.2
2018-12-14T12:11:14.386Z,40.2
2018-12-14T12:12:15.710Z,40.5
2018-12-14T12:13:17.314Z,40.3
2018-12-14T12:14:19.216Z,40.4
2018-12-14T12:15:20.522Z,40.2
2018-12-14T12:16:22.145Z,40.3
2018-12-14T12:17:24.071Z,40.2
2018-12-14T12:18:25.984Z,40.3
2018-12-14T12:19:27.658Z,40.3
2018-12-14T12:20:29.555Z,40.4
2018-12-14T12:21:30.908Z,40.2
2018-12-14T12:22:32.532Z,40.3
2018-12-14T12:23:34.153Z,40.2
2018-12-14T12:24:35.765Z,40
2018-12-14T12:25:37.136Z,40.5
2018-12-14T12:26:38.738Z,39.9
2018-12-14T12:27:40.372Z,40.3
2018-12-14T12:28:41.690Z,40
2018-12-14T12:29:43.310Z,40.2
2018-12-14T12:30:44.363Z,39.8
2018-12-14T12:31:45.689Z,40
2018-12-14T12:32:48.415Z,39.9
2018-12-14T12:33:49.759Z,39.8
2018-12-14T12:34:51.379Z,39.8
2018-12-14T12:35:52.721Z,40.1
2018-12-14T12:36:54.317Z,39.6
2018-12-14T12:37:55.644Z,39.8
2018-12-14T12:38:56.692Z,40
2018-12-14T12:39:58.592Z,39.6
2018-12-14T12:40:59.961Z,39.5
2018-12-14T12:42:01.585Z,39.7
2018-12-14T12:43:02.960Z,39.7
2018-12-14T12:44:04.583Z,39.6
2018-12-14T12:45:07.659Z,39.3
2018-12-14T12:46:08.796Z,39.4
2018-12-14T12:47:10.416Z,39.2
2018-12-14T12:48:12.312Z,38.9
2018-12-14T12:49:14.210Z,38.9
2018-12-14T12:50:15.826Z,39.2
2018-12-14T12:51:17.454Z,39.1
2018-12-14T12:52:19.352Z,39
2018-12-14T12:53:20.974Z,39
2018-12-14T12:54:22.593Z,38.9
2018-12-14T12:55:24.494Z,38.9
2018-12-14T12:56:25.819Z,39.2
2018-12-14T12:57:27.141Z,39.4
2018-12-14T12:58:29.035Z,39.3
2018-12-14T12:59:30.936Z,39.4
2018-12-14T13:00:32.833Z,39.6
2018-12-14T13:01:34.464Z,39.3
2018-12-14T13:02:35.513Z,39.9
2018-12-14T13:03:36.844Z,40
2018-12-14T13:04:39.413Z,40.3
2018-12-14T13:05:40.736Z,40.5
2018-12-14T13:06:41.791Z,40.5
2018-12-14T13:07:43.684Z,40.3
2018-12-14T13:08:45.009Z,40.4
2018-12-14T13:09:46.359Z,40
2018-12-14T13:10:48.256Z,39.8
2018-12-14T13:11:49.583Z,39.9
2018-12-14T13:12:51.188Z,40.1
2018-12-14T13:13:53.082Z,40.2
2018-12-14T13:14:54.409Z,39.7
2018-12-14T13:15:56.007Z,39.8
2018-12-14T13:16:57.063Z,39.8
2018-12-14T13:17:58.411Z,39.7
2018-12-14T13:19:00.035Z,39.7
2018-12-14T13:20:01.656Z,39.8
2018-12-14T13:21:02.981Z,39.7
2018-12-14T13:22:04.355Z,39.9
2018-12-14T13:23:05.971Z,39.7
2018-12-14T13:24:07.872Z,39.6
2018-12-14T13:25:09.195Z,39.8
2018-12-14T13:26:10.820Z,39.5
2018-12-14T13:27:12.163Z,39.3
2018-12-14T13:28:13.783Z,39.2
2018-12-14T13:29:15.714Z,39.4
2018-12-14T13:30:17.597Z,39.4
2018-12-14T13:31:18.927Z,39.4
2018-12-14T13:32:20.546Z,39.2
2018-12-14T13:33:21.892Z,39.4
2018-12-14T13:34:23.516Z,39.2
2018-12-14T13:35:24.571Z,39.4
2018-12-14T13:36:25.895Z,39.3
2018-12-14T13:37:27.247Z,39.1
2018-12-14T13:38:28.881Z,38.9
2018-12-14T13:39:30.783Z,39.1
2018-12-14T13:40:32.150Z,39.3
2018-12-14T13:41:33.478Z,39.4
2018-12-14T13:42:35.109Z,39.4
2018-12-14T13:43:37.031Z,39.6
2018-12-14T13:44:38.652Z,39.4
2018-12-14T13:45:40.017Z,39.5
2018-12-14T13:46:41.624Z,39.7